Time;durP1;ratioP1;P1;durP2;ratioP2;P2;SDS_P1;SDS_P2;PMS_P1;PMS_P2;Temp;Humidity;BMP_temperature;BMP_pressure;BME280_temperature;BME280_humidity;BME280_pressure;Samples;Min_cycle;Max_cycle;Signal;HPM_P1;HPM_P2
2022/07/02 00:01:22;;;;;;;18.58;15.00;;;;;;;13.30;85.08;101610.56;7395261;19;20165;-66
2022/07/02 00:03:59;;;;;;;20.48;14.68;;;;;;;13.29;85.15;101611.47;7395534;19;20085;-66
2022/07/02 00:06:32;;;;;;;17.15;15.05;;;;;;;13.27;85.05;101614.13;7393294;19;20014;-66
2022/07/02 00:09:03;;;;;;;20.00;15.88;;;;;;;13.24;85.20;101606.28;7395352;19;20018;-66
2022/07/02 00:11:34;;;;;;;20.13;16.65;;;;;;;13.23;85.16;101604.56;7392963;19;20510;-66
2022/07/02 00:14:03;;;;;;;20.42;17.73;;;;;;;13.19;85.14;101598.47;7394697;19;20426;-66
2022/07/02 00:16:32;;;;;;;23.85;18.15;;;;;;;13.17;85.14;101605.53;7393973;19;21843;-66
2022/07/02 00:19:04;;;;;;;26.70;19.70;;;;;;;13.15;85.20;101612.56;7395187;19;20027;-66
2022/07/02 00:21:32;;;;;;;25.88;18.88;;;;;;;13.10;85.26;101603.91;7393407;19;20035;-66
2022/07/02 00:24:01;;;;;;;26.30;20.40;;;;;;;13.10;85.17;101608.31;7392602;19;20023;-66
2022/07/02 00:26:33;;;;;;;30.92;20.30;;;;;;;13.07;85.19;101606.59;7392109;19;20351;-65
2022/07/02 00:29:04;;;;;;;28.15;21.13;;;;;;;13.04;85.43;101602.25;7394097;19;20031;-66
2022/07/02 00:31:33;;;;;;;27.45;20.58;;;;;;;13.02;85.51;101611.09;7397045;19;20015;-66
2022/07/02 00:34:06;;;;;;;27.70;20.80;;;;;;;13.00;85.71;101607.59;7401382;19;20024;-66
2022/07/02 00:36:36;;;;;;;28.48;20.63;;;;;;;12.96;85.43;101612.03;7400864;19;20422;-65
2022/07/02 00:39:05;;;;;;;31.27;22.13;;;;;;;12.96;85.65;101621.72;7401186;19;20018;-65
2022/07/02 00:41:35;;;;;;;28.55;21.65;;;;;;;12.95;85.79;101609.44;7401516;19;20033;-66
2022/07/02 00:44:06;;;;;;;33.25;21.85;;;;;;;12.91;85.74;101608.63;7401014;19;20388;-66
2022/07/02 00:46:37;;;;;;;33.15;21.42;;;;;;;12.89;85.81;101602.53;7401257;19;20350;-66
2022/07/02 00:49:08;;;;;;;30.38;21.33;;;;;;;12.86;86.05;101606.09;7400971;19;20015;-66
2022/07/02 00:51:37;;;;;;;26.88;21.30;;;;;;;12.84;85.98;101607.88;7399079;19;20028;-66
2022/07/02 00:54:05;;;;;;;29.92;21.15;;;;;;;12.84;86.04;101617.56;7398480;19;20019;-66
2022/07/02 00:56:34;;;;;;;29.98;20.67;;;;;;;12.81;86.13;101621.09;7400549;19;20014;-66
2022/07/02 00:59:05;;;;;;;28.85;21.80;;;;;;;12.81;86.46;101615.81;7400961;19;20028;-66
2022/07/02 01:01:33;;;;;;;25.30;18.25;;;;;;;12.80;86.16;101616.72;7401376;19;20019;-66
2022/07/02 01:04:04;;;;;;;29.42;21.27;;;;;;;12.77;86.14;101619.41;7400903;19;20023;-66
2022/07/02 01:06:35;;;;;;;29.50;20.98;;;;;;;12.75;86.24;101613.31;7400250;19;20511;-66
2022/07/02 01:11:47;;;;;;;24.33;19.25;;;;;;;12.73;86.71;101619.50;7398272;19;20094;-66
2022/07/02 01:14:20;;;;;;;27.75;21.30;;;;;;;12.71;86.63;101622.13;7401181;19;20031;-66
2022/07/02 01:16:49;;;;;;;27.60;20.45;;;;;;;12.71;86.84;101619.50;7399473;19;20026;-66
2022/07/02 01:19:20;;;;;;;30.35;20.77;;;;;;;12.68;86.53;101622.19;7399922;19;20553;-66
2022/07/02 01:22:11;;;;;;;29.15;21.17;;;;;;;12.66;86.89;101610.81;7399870;19;20010;-66
2022/07/02 01:24:40;;;;;;;28.60;19.92;;;;;;;12.65;86.87;101606.44;7399776;19;20376;-66
2022/07/02 01:27:09;;;;;;;26.00;20.42;;;;;;;12.63;87.14;101619.63;7398638;19;20443;-66
2022/07/02 01:29:38;;;;;;;27.58;20.40;;;;;;;12.62;86.93;101624.94;7397065;19;20391;-66
2022/07/02 01:32:09;;;;;;;30.52;21.13;;;;;;;12.61;87.20;101626.69;7397716;19;20380;-66
2022/07/02 01:34:41;;;;;;;28.05;19.83;;;;;;;12.60;87.20;101626.69;7401008;19;20018;-66
2022/07/02 01:37:14;;;;;;;30.13;20.10;;;;;;;12.55;87.19;101622.38;7399005;19;20039;-66
2022/07/02 01:39:44;;;;;;;26.40;19.88;;;;;;;12.55;87.58;101626.81;7400106;19;20378;-66
2022/07/02 01:42:14;;;;;;;24.48;19.70;;;;;;;12.53;87.43;101629.44;7399067;19;20011;-66
2022/07/02 01:44:44;;;;;;;27.40;19.63;;;;;;;12.52;87.50;101627.72;7399181;19;20018;-66
2022/07/02 01:47:14;;;;;;;26.45;20.10;;;;;;;12.51;87.74;101632.97;7397963;19;20035;-66
2022/07/02 01:49:43;;;;;;;24.30;19.13;;;;;;;12.50;87.73;101634.75;7398989;19;20476;-66
2022/07/02 01:52:16;;;;;;;26.77;19.55;;;;;;;12.49;87.76;101627.75;7397212;19;20078;-65
2022/07/02 01:54:45;;;;;;;27.48;20.27;;;;;;;12.49;87.75;101626.91;7398925;19;20006;-66
2022/07/02 01:57:15;;;;;;;25.63;19.85;;;;;;;12.47;87.77;101631.31;7396706;19;20402;-66
2022/07/02 01:59:44;;;;;;;29.23;20.02;;;;;;;12.46;87.93;101632.19;7399008;19;20039;-66
2022/07/02 02:02:12;;;;;;;27.58;19.38;;;;;;;12.44;87.84;101629.59;7398964;19;20199;-66
2022/07/02 02:04:41;;;;;;;25.52;19.25;;;;;;;12.44;88.01;101629.59;7398451;19;20019;-66
2022/07/02 02:07:09;;;;;;;23.52;18.65;;;;;;;12.42;87.87;101625.25;7397356;19;20090;-66
2022/07/02 02:09:41;;;;;;;24.40;19.05;;;;;;;12.41;88.00;101640.16;7398345;19;20074;-66
2022/07/02 02:12:10;;;;;;;24.90;19.48;;;;;;;12.41;88.19;101652.44;7397297;19;20019;-66
2022/07/02 02:14:38;;;;;;;22.75;17.80;;;;;;;12.37;88.17;101647.25;7398401;19;20078;-66
2022/07/02 02:17:08;;;;;;;25.63;19.27;;;;;;;12.36;88.30;101653.38;7396404;19;20028;-66
2022/07/02 02:19:36;;;;;;;29.50;21.92;;;;;;;12.36;88.42;101655.16;7396214;19;20019;-66
2022/07/02 02:22:06;;;;;;;27.55;20.58;;;;;;;12.34;88.44;101654.31;7398201;19;20038;-66
2022/07/02 02:24:34;;;;;;;29.70;20.02;;;;;;;12.33;88.38;101657.81;7397950;19;20078;-66
2022/07/02 02:27:06;;;;;;;26.65;20.33;;;;;;;12.31;88.47;101656.97;7395944;19;20025;-66
2022/07/02 02:29:34;;;;;;;29.67;20.75;;;;;;;12.31;88.34;101656.97;7395604;19;20506;-66
2022/07/02 02:32:03;;;;;;;29.02;19.85;;;;;;;12.30;88.47;101663.16;7396810;19;20497;-66
2022/07/02 02:34:31;;;;;;;28.77;20.27;;;;;;;12.29;88.56;101666.66;7395326;19;20014;-66
2022/07/02 02:37:00;;;;;;;25.42;19.90;;;;;;;12.28;88.54;101665.78;7395615;19;20039;-66
2022/07/02 02:39:29;;;;;;;24.77;20.42;;;;;;;12.27;88.71;101669.31;7397660;19;20035;-66
2022/07/02 02:41:57;;;;;;;24.23;19.15;;;;;;;12.26;88.61;101672.84;7397735;19;20090;-66
2022/07/02 02:44:28;;;;;;;22.75;19.48;;;;;;;12.25;88.73;101671.09;7395775;19;20031;-66
2022/07/02 02:46:57;;;;;;;24.10;19.30;;;;;;;12.24;88.54;101674.59;7396003;19;20018;-66
2022/07/02 02:49:25;;;;;;;22.60;19.20;;;;;;;12.24;88.65;101676.38;7395315;19;20485;-66
2022/07/02 02:51:54;;;;;;;23.55;18.40;;;;;;;12.22;88.66;101676.41;7395624;19;20014;-66
2022/07/02 02:54:22;;;;;;;25.08;19.00;;;;;;;12.20;88.79;101665.88;7393972;19;20022;-66
2022/07/02 02:56:51;;;;;;;23.50;19.42;;;;;;;12.19;88.75;101665.91;7396630;19;20022;-66
2022/07/02 02:59:19;;;;;;;24.45;19.40;;;;;;;12.19;88.83;101672.03;7397154;19;20015;-66
2022/07/02 03:01:50;;;;;;;26.15;20.52;;;;;;;12.19;88.81;101676.44;7395249;19;20018;-66
2022/07/02 03:04:19;;;;;;;23.40;18.33;;;;;;;12.17;88.80;101681.72;7396605;19;20070;-66
2022/07/02 03:06:47;;;;;;;25.48;19.33;;;;;;;12.17;88.99;101681.72;7395038;19;20015;-66
2022/07/02 03:09:16;;;;;;;28.60;19.98;;;;;;;12.16;88.96;101687.88;7395007;19;20031;-66
2022/07/02 03:11:45;;;;;;;23.23;18.08;;;;;;;12.16;88.86;101687.88;7395856;19;20015;-66
2022/07/02 03:14:13;;;;;;;22.63;18.90;;;;;;;12.15;89.03;101698.41;7397165;19;20014;-66
2022/07/02 03:16:42;;;;;;;23.08;18.58;;;;;;;12.14;89.02;101702.78;7394384;19;20015;-65
2022/07/02 03:19:13;;;;;;;24.15;19.17;;;;;;;12.15;89.11;101701.91;7394229;19;20015;-66
2022/07/02 03:21:42;;;;;;;24.65;18.90;;;;;;;12.15;89.20;101704.53;7396705;19;20011;-66
2022/07/02 03:24:10;;;;;;;24.45;17.65;;;;;;;12.14;89.10;101710.69;7396173;19;20018;-66
2022/07/02 03:26:39;;;;;;;22.77;18.95;;;;;;;12.14;89.19;101708.06;7395687;19;20019;-66
2022/07/02 03:29:07;;;;;;;25.63;20.55;;;;;;;12.13;89.42;101703.72;7394407;19;20019;-66
2022/07/02 03:31:36;;;;;;;29.77;19.60;;;;;;;12.12;89.54;101711.59;7394144;19;20019;-66
2022/07/02 03:34:05;;;;;;;26.02;19.55;;;;;;;12.11;89.50;101713.38;7394337;19;20022;-66
2022/07/02 03:36:36;;;;;;;25.50;18.95;;;;;;;12.11;89.52;101709.88;7396908;19;20035;-69
2022/07/02 03:39:05;;;;;;;25.95;19.33;;;;;;;12.10;89.62;101716.88;7394086;19;20078;-66
2022/07/02 03:41:33;;;;;;;24.15;19.05;;;;;;;12.12;89.53;101716.84;7394906;19;20617;-66
2022/07/02 03:44:02;;;;;;;23.50;18.55;;;;;;;12.13;89.60;101723.88;7394945;19;20509;-66
2022/07/02 03:46:30;;;;;;;24.48;19.00;;;;;;;12.13;89.77;101726.50;7393837;19;20081;-66
2022/07/02 03:48:59;;;;;;;26.75;19.27;;;;;;;12.15;89.93;101730.00;7396018;19;20019;-66
2022/07/02 03:51:27;;;;;;;23.75;18.95;;;;;;;12.15;89.79;101733.47;7394514;19;20014;-65
2022/07/02 03:53:58;;;;;;;26.58;19.25;;;;;;;12.17;89.88;101734.34;7395421;19;20026;-65
2022/07/02 03:56:28;;;;;;;27.02;19.52;;;;;;;12.18;90.05;101736.09;7394662;19;20018;-65
2022/07/02 03:58:56;;;;;;;26.20;18.55;;;;;;;12.18;89.95;101737.81;7395135;19;20014;-66
2022/07/02 04:01:25;;;;;;;25.23;18.70;;;;;;;12.21;90.14;101738.66;7394997;19;20082;-65
2022/07/02 04:03:53;;;;;;;28.38;20.80;;;;;;;12.22;90.13;101740.41;7394945;19;20086;-66
2022/07/02 04:06:22;;;;;;;26.48;19.40;;;;;;;12.25;90.19;101743.91;7400046;19;20010;-66
2022/07/02 04:08:50;;;;;;;26.35;19.45;;;;;;;12.26;90.37;101745.63;7402427;19;20018;-65
2022/07/02 04:11:21;;;;;;;28.00;19.08;;;;;;;12.28;90.22;101746.47;7401864;19;20082;-66
2022/07/02 04:13:50;;;;;;;29.90;20.13;;;;;;;12.31;90.38;101749.06;7402159;19;20545;-66
2022/07/02 04:16:19;;;;;;;26.27;19.17;;;;;;;12.34;90.44;101749.91;7399236;19;20035;-65
2022/07/02 04:18:47;;;;;;;27.77;20.25;;;;;;;12.38;90.71;101753.38;7401881;19;20019;-66
2022/07/02 04:21:16;;;;;;;27.77;19.60;;;;;;;12.42;90.50;101751.56;7398918;19;20564;-66
2022/07/02 04:23:44;;;;;;;28.50;19.55;;;;;;;12.45;90.80;101748.88;7399142;19;20019;-66
2022/07/02 04:26:13;;;;;;;27.00;20.60;;;;;;;12.50;90.50;101754.97;7401803;19;20086;-66
2022/07/02 04:28:44;;;;;;;29.65;20.33;;;;;;;12.53;90.58;101755.78;7398755;19;20074;-66
2022/07/02 04:31:12;;;;;;;30.83;21.35;;;;;;;12.57;90.58;101759.25;7401753;19;20039;-66
2022/07/02 04:33:48;;;;;;;28.52;21.58;;;;;;;12.65;90.43;101753.88;7398198;19;20074;-66
2022/07/02 04:36:16;;;;;;;26.70;20.58;;;;;;;12.68;90.55;101757.31;7398528;19;20074;-66
2022/07/02 04:38:45;;;;;;;28.60;20.25;;;;;;;12.74;90.49;101753.75;7398866;19;20019;-66
2022/07/02 04:41:13;;;;;;;26.85;20.27;;;;;;;12.77;90.52;101756.31;7401386;19;20425;-66
2022/07/02 04:43:44;;;;;;;27.67;19.00;;;;;;;12.80;90.41;101758.94;7401191;19;20091;-66
2022/07/02 04:46:13;;;;;;;26.52;18.95;;;;;;;12.84;90.20;101763.25;7398269;19;20488;-66
2022/07/02 04:48:48;;;;;;;30.02;21.58;;;;;;;12.88;90.15;101762.31;7398638;19;20028;-66
2022/07/02 04:51:17;;;;;;;26.60;20.10;;;;;;;12.92;90.38;101763.13;7397688;19;20813;-66
2022/07/02 04:53:45;;;;;;;25.80;18.67;;;;;;;12.95;90.07;101759.59;7401606;19;20090;-66
2022/07/02 04:56:14;;;;;;;27.33;19.13;;;;;;;12.99;90.13;101756.88;7400570;19;20010;-66
2022/07/02 04:58:45;;;;;;;24.02;17.67;;;;;;;13.02;89.90;101769.13;7398307;19;20035;-66
2022/07/02 05:01:13;;;;;;;24.13;17.90;;;;;;;13.04;89.88;101762.06;7401259;19;20015;-66
2022/07/02 05:03:42;;;;;;;25.88;18.48;;;;;;;13.09;89.86;101772.53;7398154;19;20035;-66
2022/07/02 05:06:10;;;;;;;26.75;18.77;;;;;;;13.12;89.86;101783.91;7398186;19;20078;-66
2022/07/02 05:08:39;;;;;;;23.27;17.98;;;;;;;13.16;89.83;101771.56;7397973;19;20018;-66
2022/07/02 05:11:07;;;;;;;21.63;17.80;;;;;;;13.19;89.58;101775.00;7397962;19;20082;-66
2022/07/02 05:13:36;;;;;;;21.85;17.85;;;;;;;13.23;89.60;101783.75;7397918;19;20031;-66
2022/07/02 05:16:07;;;;;;;21.63;16.80;;;;;;;13.27;89.48;101769.63;7396895;19;20022;-66
2022/07/02 05:18:36;;;;;;;23.80;17.08;;;;;;;13.31;89.39;101766.03;7397095;19;20019;-74
2022/07/02 05:21:04;;;;;;;22.52;16.95;;;;;;;13.37;89.28;101775.66;7397129;19;20018;-66
2022/07/02 05:23:33;;;;;;;23.20;16.90;;;;;;;13.44;89.51;101777.25;7399849;19;20090;-66
2022/07/02 05:26:02;;;;;;;20.70;16.13;;;;;;;13.48;89.07;101778.97;7399939;19;20086;-66
2022/07/02 05:28:30;;;;;;;21.60;16.05;;;;;;;13.55;89.09;101777.09;7397586;19;20018;-66
2022/07/02 05:30:59;;;;;;;21.92;16.05;;;;;;;13.61;89.01;101773.44;7396920;19;20363;-65
2022/07/02 05:33:30;;;;;;;20.48;16.05;;;;;;;13.68;88.92;101777.72;7396961;19;20014;-66
2022/07/02 05:35:58;;;;;;;21.73;16.40;;;;;;;13.77;88.93;101780.19;7396739;19;20477;-65
2022/07/02 05:38:27;;;;;;;19.52;15.60;;;;;;;13.83;88.71;101774.78;7396716;19;20090;-65
2022/07/02 05:40:55;;;;;;;19.85;15.80;;;;;;;13.92;88.41;101784.31;7396789;19;20110;-65
2022/07/02 05:43:24;;;;;;;19.88;15.65;;;;;;;14.00;88.15;101792.06;7396285;19;20506;-65
2022/07/02 05:45:52;;;;;;;21.83;14.52;;;;;;;14.07;88.41;101788.41;7397031;19;20030;-66
2022/07/02 05:48:21;;;;;;;17.25;14.15;;;;;;;14.16;88.26;101790.88;7396577;19;20022;-66
2022/07/02 05:50:52;;;;;;;17.60;13.68;;;;;;;14.24;88.11;101792.50;7396263;19;20035;-66
2022/07/02 05:53:21;;;;;;;18.85;13.95;;;;;;;14.31;88.08;101794.97;7396531;19;20454;-65
2022/07/02 05:55:49;;;;;;;18.40;14.88;;;;;;;14.40;87.64;101793.06;7399162;19;20018;-64
2022/07/02 05:58:18;;;;;;;17.60;13.57;;;;;;;14.48;87.35;101801.66;7396603;19;20477;-66
2022/07/02 06:00:46;;;;;;;14.98;12.82;;;;;;;14.58;87.14;101799.69;7396705;19;20090;-66
2022/07/02 06:03:15;;;;;;;14.88;13.25;;;;;;;14.66;87.03;101795.16;7396705;19;20158;-66
2022/07/02 06:08:27;;;;;;;14.60;12.07;;;;;;;14.85;86.39;101798.25;7396635;19;20489;-66
2022/07/02 06:10:55;;;;;;;14.55;11.00;;;;;;;14.94;86.18;101802.47;7397900;19;20018;-66
2022/07/02 06:13:24;;;;;;;15.15;12.07;;;;;;;15.02;85.94;101812.84;7396127;19;20027;-66
2022/07/02 06:15:52;;;;;;;15.95;11.93;;;;;;;15.11;85.14;101813.53;7398391;19;20035;-65
2022/07/02 06:18:21;;;;;;;13.98;11.00;;;;;;;15.21;84.96;101822.06;7395772;19;20016;-66
2022/07/02 06:20:49;;;;;;;12.02;10.45;;;;;;;15.30;84.60;101818.34;7395933;19;20038;-66
2022/07/02 06:23:21;;;;;;;12.57;10.25;;;;;;;15.39;83.91;101826.06;7397653;19;20086;-64
2022/07/02 06:25:52;;;;;;;16.33;10.30;;;;;;;15.48;83.52;101825.84;7397732;19;20014;-65
2022/07/02 06:28:21;;;;;;;13.07;9.65;;;;;;;15.57;83.47;101824.72;7393607;19;20019;-66
2022/07/02 06:30:49;;;;;;;13.68;10.25;;;;;;;15.66;83.23;101823.63;7395258;19;20023;-66
2022/07/02 06:33:18;;;;;;;10.98;9.57;;;;;;;15.74;82.67;101821.63;7396126;19;20022;-66
2022/07/02 06:35:46;;;;;;;12.23;10.52;;;;;;;15.81;82.19;101819.72;7395721;19;20027;-66
2022/07/02 06:38:15;;;;;;;14.75;9.70;;;;;;;15.90;81.68;101819.50;7394635;19;20548;-66
2022/07/02 06:40:44;;;;;;;12.27;9.38;;;;;;;15.98;81.91;101814.00;7395445;19;20024;-66
2022/07/02 06:43:15;;;;;;;11.05;8.95;;;;;;;16.07;81.04;101815.50;7395719;19;20023;-66
2022/07/02 06:45:43;;;;;;;12.50;8.73;;;;;;;16.17;81.09;101821.44;7397051;19;20525;-66
2022/07/02 06:48:12;;;;;;;9.10;7.72;;;;;;;16.26;80.31;101818.50;7395624;19;20027;-66
2022/07/02 06:50:40;;;;;;;9.23;7.57;;;;;;;16.34;79.27;101820.94;7396680;19;20014;-67
2022/07/02 06:53:22;;;;;;;9.07;8.07;;;;;;;16.42;78.91;101825.09;7394202;19;20027;-66
2022/07/02 06:55:53;;;;;;;10.52;7.78;;;;;;;16.53;78.64;101823.91;7397546;19;20154;-66
2022/07/02 06:58:24;;;;;;;8.65;7.35;;;;;;;16.61;77.67;101825.44;7395887;19;20081;-66
2022/07/02 07:00:53;;;;;;;12.35;9.77;;;;;;;16.71;77.71;101831.31;7394745;19;20484;-66
2022/07/02 07:03:21;;;;;;;35.38;24.02;;;;;;;16.82;77.14;101827.47;7396679;19;20018;-66
2022/07/02 07:05:51;;;;;;;15.02;9.50;;;;;;;16.90;76.55;101830.78;7394486;19;20022;-67
2022/07/02 07:08:20;;;;;;;9.07;7.72;;;;;;;16.99;75.96;101830.50;7394710;19;20082;-66
2022/07/02 07:10:48;;;;;;;8.68;7.88;;;;;;;17.09;75.82;101829.28;7394665;19;20078;-66
2022/07/02 07:13:17;;;;;;;6.53;5.72;;;;;;;17.19;74.05;101831.66;7395037;19;20022;-66
2022/07/02 07:15:48;;;;;;;6.03;4.65;;;;;;;17.27;72.22;101837.56;7395153;19;20077;-66
2022/07/02 07:18:16;;;;;;;5.55;4.75;;;;;;;17.36;72.20;101832.00;7393670;19;20022;-66
2022/07/02 07:20:47;;;;;;;6.57;5.13;;;;;;;17.48;71.96;101824.50;7393416;19;20027;-66
2022/07/02 07:23:15;;;;;;;7.97;5.38;;;;;;;17.58;71.10;101828.63;7395600;19;20022;-66
2022/07/02 07:25:44;;;;;;;5.57;4.85;;;;;;;17.69;71.15;101828.22;7393929;19;20022;-66
2022/07/02 07:28:12;;;;;;;6.15;5.25;;;;;;;17.80;70.40;101843.81;7393969;19;20023;-66
2022/07/02 07:30:42;;;;;;;7.70;4.93;;;;;;;17.89;69.88;101838.16;7395747;19;20022;-66
2022/07/02 07:33:13;;;;;;;5.90;5.30;;;;;;;17.99;69.30;101841.41;7394549;19;20477;-65
2022/07/02 07:35:41;;;;;;;4.13;3.33;;;;;;;18.07;68.03;101839.31;7395739;19;20039;-65
2022/07/02 07:38:10;;;;;;;3.47;3.17;;;;;;;18.17;66.64;101842.50;7393869;19;20020;-66
2022/07/02 07:40:38;;;;;;;6.93;2.88;;;;;;;18.28;64.66;101839.47;7394306;19;20018;-66
2022/07/02 07:43:07;;;;;;;3.30;3.00;;;;;;;18.36;64.29;101840.94;7394509;19;20018;-66
2022/07/02 07:45:35;;;;;;;4.95;3.13;;;;;;;18.47;63.83;101850.28;7393454;19;20035;-66
2022/07/02 07:48:04;;;;;;;3.75;2.72;;;;;;;18.57;62.51;101843.69;7393796;19;20015;-66
2022/07/02 07:50:35;;;;;;;9.75;2.85;;;;;;;18.69;61.54;101847.66;7395096;19;20082;-66
2022/07/02 07:53:03;;;;;;;4.90;2.70;;;;;;;18.82;61.99;101846.28;7392930;19;20010;-66
2022/07/02 07:55:32;;;;;;;3.75;2.90;;;;;;;18.98;61.25;101843.94;7395067;19;20098;-66
2022/07/02 07:58:01;;;;;;;4.78;2.28;;;;;;;19.17;60.94;101848.50;7393019;19;20022;-69
2022/07/02 08:00:30;;;;;;;4.03;2.45;;;;;;;19.36;59.78;101845.94;7394302;19;20086;-66
2022/07/02 08:02:58;;;;;;;3.58;2.53;;;;;;;19.55;58.74;101856.72;7394425;19;20019;-66
2022/07/02 08:05:27;;;;;;;5.80;2.50;;;;;;;19.68;58.65;101857.91;7393338;19;20031;-66
2022/07/02 08:07:58;;;;;;;4.53;2.40;;;;;;;19.80;57.19;101871.63;7392889;19;20019;-66
2022/07/02 08:10:27;;;;;;;5.22;1.52;;;;;;;19.85;55.29;101857.25;7393467;19;20018;-66
2022/07/02 08:12:55;;;;;;;3.38;1.40;;;;;;;19.88;54.28;101861.56;7393866;19;20031;-67
2022/07/02 08:15:24;;;;;;;1.75;0.95;;;;;;;19.90;52.33;101862.34;7394139;19;20078;-66
2022/07/02 08:17:53;;;;;;;3.25;1.23;;;;;;;19.91;51.85;101864.06;7392579;19;20032;-66
2022/07/02 08:20:23;;;;;;;3.92;1.00;;;;;;;19.93;51.23;101866.66;7394432;19;20023;-65
2022/07/02 08:22:51;;;;;;;5.47;0.88;;;;;;;19.94;50.68;101871.06;7392187;19;20018;-65
2022/07/02 08:25:22;;;;;;;2.80;1.02;;;;;;;19.99;49.58;101874.41;7392278;19;20026;-66
2022/07/02 08:27:51;;;;;;;1.92;1.35;;;;;;;20.05;50.22;101863.47;7392564;19;20018;-66
2022/07/02 08:30:19;;;;;;;3.90;1.50;;;;;;;20.16;49.74;101873.69;7393857;19;20035;-66
2022/07/02 08:32:48;;;;;;;2.63;1.52;;;;;;;20.27;49.69;101867.84;7393041;19;20086;-66
2022/07/02 08:35:18;;;;;;;1.15;0.93;;;;;;;20.39;49.94;101859.31;7394109;19;20014;-66
2022/07/02 08:37:47;;;;;;;4.82;1.48;;;;;;;20.50;48.93;101866.81;7392632;19;20018;-66
2022/07/02 08:40:16;;;;;;;2.40;1.10;;;;;;;20.56;49.00;101857.66;7393929;19;20388;-66
2022/07/02 08:42:48;;;;;;;2.00;0.80;;;;;;;20.63;46.68;101853.78;7393121;19;20010;-65
2022/07/02 08:45:17;;;;;;;2.83;0.93;;;;;;;20.72;47.84;101856.03;7391506;19;20097;-66
2022/07/02 08:47:47;;;;;;;2.55;0.90;;;;;;;20.81;47.65;101866.31;7391488;19;20023;-66
2022/07/02 08:50:19;;;;;;;3.97;1.05;;;;;;;20.87;46.82;101864.28;7393377;19;20022;-66
2022/07/02 08:52:50;;;;;;;2.33;0.93;;;;;;;20.94;46.94;101865.69;7397697;19;20502;-66
2022/07/02 08:55:20;;;;;;;1.95;1.02;;;;;;;20.98;45.97;101856.63;7397870;19;20027;-66
2022/07/02 08:57:53;;;;;;;2.53;1.30;;;;;;;21.02;44.36;101852.88;7397426;19;20462;-66
2022/07/02 09:00:24;;;;;;;2.90;1.37;;;;;;;21.07;45.54;101849.97;7400974;19;20031;-66
2022/07/02 09:02:56;;;;;;;2.53;0.90;;;;;;;21.12;45.07;101850.63;7400773;19;20504;-66
2022/07/02 09:05:27;;;;;;;2.00;1.15;;;;;;;21.15;44.90;101842.44;7398194;19;20375;-66
2022/07/02 09:07:58;;;;;;;4.05;1.42;;;;;;;21.14;44.45;101846.06;7397832;19;20078;-67
2022/07/02 09:10:28;;;;;;;2.97;1.33;;;;;;;21.13;44.52;101850.53;7400196;19;20019;-66
2022/07/02 09:12:59;;;;;;;3.83;1.85;;;;;;;21.16;45.00;101849.53;7399785;19;20018;-67
2022/07/02 09:15:28;;;;;;;1.63;1.00;;;;;;;21.20;44.45;101847.56;7397067;19;20364;-66
2022/07/02 09:17:57;;;;;;;1.67;1.00;;;;;;;21.26;44.03;101842.78;7397579;19;20412;-67
2022/07/02 09:20:26;;;;;;;1.95;1.05;;;;;;;21.29;43.54;101850.66;7399520;19;20042;-67
2022/07/02 09:22:55;;;;;;;1.38;0.70;;;;;;;21.34;44.12;101846.91;7396814;19;20370;-67
2022/07/02 09:25:26;;;;;;;3.33;1.20;;;;;;;21.37;43.71;101850.28;7399515;19;20022;-67
2022/07/02 09:28:03;;;;;;;2.30;1.15;;;;;;;21.41;41.88;101845.66;7397416;19;20032;-67
2022/07/02 09:30:33;;;;;;;3.53;0.70;;;;;;;21.43;43.20;101846.41;7399729;19;20019;-67
2022/07/02 09:35:44;;;;;;;1.45;0.82;;;;;;;21.49;42.94;101836.28;7399622;19;20015;-67
2022/07/02 09:38:14;;;;;;;2.75;1.10;;;;;;;21.54;42.24;101825.38;7396306;19;20018;-67
2022/07/02 09:40:53;;;;;;;2.17;1.00;;;;;;;21.62;41.90;101820.56;7396905;19;20078;-67
2022/07/02 09:43:35;;;;;;;2.15;1.10;;;;;;;21.72;42.02;101818.25;7398737;19;20010;-67
2022/07/02 09:46:04;;;;;;;3.15;0.90;;;;;;;21.85;41.96;101820.28;7398989;19;20489;-65
2022/07/02 09:48:32;;;;;;;3.65;1.00;;;;;;;21.99;41.70;101822.25;7396637;19;20023;-66
2022/07/02 09:51:06;;;;;;;2.22;0.80;;;;;;;22.13;38.53;101817.91;7398715;19;20020;-66
2022/07/02 09:53:35;;;;;;;1.58;0.60;;;;;;;22.21;40.35;101820.16;7396898;19;20477;-66
2022/07/02 09:56:06;;;;;;;3.75;1.15;;;;;;;22.26;40.24;101809.22;7399178;19;20022;-66
2022/07/02 09:58:37;;;;;;;3.78;0.70;;;;;;;22.31;40.20;101820.53;7396804;19;20023;-66
2022/07/02 10:01:06;;;;;;;0.98;0.70;;;;;;;22.36;40.39;101814.94;7399358;19;20082;-65
2022/07/02 10:03:35;;;;;;;2.53;0.60;;;;;;;22.42;40.22;101820.84;7396179;19;20417;-66
2022/07/02 10:06:03;;;;;;;2.25;1.10;;;;;;;22.48;39.79;101813.41;7398692;19;20031;-67
2022/07/02 10:08:34;;;;;;;3.10;1.00;;;;;;;22.52;40.20;101820.31;7396161;19;20018;-66
2022/07/02 10:11:03;;;;;;;2.28;1.20;;;;;;;22.57;40.14;101816.44;7397084;19;20019;-66
2022/07/02 10:13:35;;;;;;;3.03;1.00;;;;;;;22.67;40.11;101814.13;7396322;19;20022;-66
2022/07/02 10:16:08;;;;;;;1.52;1.02;;;;;;;22.80;39.31;101808.94;7398945;19;20018;-66
2022/07/02 10:18:38;;;;;;;2.92;1.13;;;;;;;22.92;39.82;101808.25;7397873;19;20023;-66
2022/07/02 10:21:06;;;;;;;3.00;1.08;;;;;;;23.02;39.62;101805.03;7397470;19;20031;-66
2022/07/02 10:23:37;;;;;;;1.13;0.77;;;;;;;23.08;39.64;101812.72;7398087;19;20026;-66
2022/07/02 10:26:05;;;;;;;2.88;0.70;;;;;;;23.14;39.63;101809.69;7394783;19;20031;-66
2022/07/02 10:28:34;;;;;;;2.38;0.75;;;;;;;23.16;39.16;101810.47;7394217;19;20082;-66
2022/07/02 10:31:09;;;;;;;1.63;0.82;;;;;;;23.15;38.85;101808.78;7394868;19;20015;-66
2022/07/02 10:33:44;;;;;;;2.55;1.08;;;;;;;23.17;38.90;101806.84;7396451;19;20041;-66
2022/07/02 10:36:15;;;;;;;1.98;0.80;;;;;;;23.18;38.67;101811.25;7393884;19;20014;-65
2022/07/02 10:38:48;;;;;;;1.88;0.88;;;;;;;23.23;38.97;101806.50;7394913;19;20048;-66
2022/07/02 10:41:27;;;;;;;2.53;1.53;;;;;;;23.33;37.50;101795.25;7395268;19;20035;-66
2022/07/02 10:43:57;;;;;;;1.77;0.77;;;;;;;23.37;37.55;101794.13;7394324;19;20485;-66
2022/07/02 10:46:29;;;;;;;2.17;0.70;;;;;;;23.35;36.89;101785.31;7396738;19;20029;-66
2022/07/02 10:48:59;;;;;;;2.30;0.80;;;;;;;23.32;37.25;101796.22;7396983;19;20014;-67
2022/07/02 10:51:30;;;;;;;2.97;0.98;;;;;;;23.28;37.69;101792.84;7394884;19;20015;-67
2022/07/02 10:54:01;;;;;;;3.03;1.00;;;;;;;23.22;37.25;101795.88;7393999;19;20074;-66
2022/07/02 10:56:29;;;;;;;2.97;0.70;;;;;;;23.19;37.43;101782.66;7393859;19;20022;-66
2022/07/02 10:58:58;;;;;;;0.95;0.63;;;;;;;23.18;37.53;101783.66;7394122;19;20086;-66
2022/07/02 11:01:29;;;;;;;2.15;0.73;;;;;;;23.23;36.43;101781.56;7395987;19;20413;-66
2022/07/02 11:04:00;;;;;;;1.55;0.90;;;;;;;23.32;36.86;101780.16;7396309;19;20027;-66
2022/07/02 11:06:30;;;;;;;1.67;0.80;;;;;;;23.40;36.94;101786.78;7396349;19;20015;-67
2022/07/02 11:09:00;;;;;;;2.05;0.93;;;;;;;23.52;36.26;101778.94;7394252;19;20035;-66
2022/07/02 11:11:52;;;;;;;4.75;1.00;;;;;;;23.65;36.55;101776.41;7395921;19;20031;-66
2022/07/02 11:14:23;;;;;;;2.53;1.02;;;;;;;23.82;36.42;101778.91;7394102;19;20014;-66
2022/07/02 11:16:56;;;;;;;2.75;0.90;;;;;;;24.01;36.18;101773.28;7395400;19;20019;-67
2022/07/02 11:19:26;;;;;;;3.70;0.57;;;;;;;24.20;36.31;101774.78;7395258;19;20090;-67
2022/07/02 11:21:57;;;;;;;1.98;0.65;;;;;;;24.37;36.14;101771.91;7394994;19;20074;-67
2022/07/02 11:24:27;;;;;;;2.08;0.77;;;;;;;24.52;35.64;101769.22;7395552;19;20014;-66
2022/07/02 11:26:56;;;;;;;1.25;0.75;;;;;;;24.65;34.99;101764.78;7393580;19;20015;-67
2022/07/02 11:29:24;;;;;;;1.75;0.80;;;;;;;24.75;34.57;101773.09;7395822;19;20082;-67
2022/07/02 11:31:58;;;;;;;1.75;0.90;;;;;;;24.80;33.87;101767.44;7395463;19;20018;-66
2022/07/02 11:34:29;;;;;;;2.80;0.90;;;;;;;24.84;34.36;101766.25;7393131;19;20373;-67
2022/07/02 11:36:58;;;;;;;1.27;0.75;;;;;;;25.00;34.42;101758.91;7394536;19;20010;-67